sensor_id;sensor_type;location;lat;lon;timestamp;P1;durP1;ratioP1;P2;durP2;ratioP2
75021;SDS011;63583;49.976;20.182;2023-03-26T00:00:36;2.70;;;1.02;;
75021;SDS011;63583;49.976;20.182;2023-03-26T00:03:22;3.45;;;1.00;;
75021;SDS011;63583;49.976;20.182;2023-03-26T00:05:48;1.75;;;0.68;;
75021;SDS011;63583;49.976;20.182;2023-03-26T00:08:14;1.05;;;0.75;;
75021;SDS011;63583;49.976;20.182;2023-03-26T00:10:41;1.67;;;0.80;;
75021;SDS011;63583;49.976;20.182;2023-03-26T00:13:08;1.48;;;0.90;;
75021;SDS011;63583;49.976;20.182;2023-03-26T00:15:35;1.77;;;0.75;;
75021;SDS011;63583;49.976;20.182;2023-03-26T00:18:01;1.77;;;1.10;;
75021;SDS011;63583;49.976;20.182;2023-03-26T00:20:31;2.78;;;1.15;;
75021;SDS011;63583;49.976;20.182;2023-03-26T00:22:59;1.85;;;0.90;;
75021;SDS011;63583;49.976;20.182;2023-03-26T00:25:28;2.03;;;0.90;;
75021;SDS011;63583;49.976;20.182;2023-03-26T00:27:54;1.17;;;0.77;;
75021;SDS011;63583;49.976;20.182;2023-03-26T00:30:20;1.40;;;0.70;;
75021;SDS011;63583;49.976;20.182;2023-03-26T00:32:45;1.40;;;0.80;;
75021;SDS011;63583;49.976;20.182;2023-03-26T00:35:11;2.50;;;0.85;;
75021;SDS011;63583;49.976;20.182;2023-03-26T00:37:38;1.10;;;0.70;;
75021;SDS011;63583;49.976;20.182;2023-03-26T00:40:07;0.88;;;0.68;;
75021;SDS011;63583;49.976;20.182;2023-03-26T00:42:35;2.70;;;0.70;;
75021;SDS011;63583;49.976;20.182;2023-03-26T00:45:05;1.92;;;0.90;;
75021;SDS011;63583;49.976;20.182;2023-03-26T00:47:32;3.58;;;0.80;;
75021;SDS011;63583;49.976;20.182;2023-03-26T00:49:58;2.15;;;0.95;;
75021;SDS011;63583;49.976;20.182;2023-03-26T00:52:24;1.83;;;0.90;;
75021;SDS011;63583;49.976;20.182;2023-03-26T00:54:53;1.95;;;0.90;;
75021;SDS011;63583;49.976;20.182;2023-03-26T00:57:19;1.35;;;0.73;;
75021;SDS011;63583;49.976;20.182;2023-03-26T00:59:46;1.30;;;0.70;;
75021;SDS011;63583;49.976;20.182;2023-03-26T01:02:16;2.95;;;1.00;;
75021;SDS011;63583;49.976;20.182;2023-03-26T01:04:46;1.00;;;0.52;;
75021;SDS011;63583;49.976;20.182;2023-03-26T01:07:20;1.00;;;0.73;;
75021;SDS011;63583;49.976;20.182;2023-03-26T01:09:57;1.63;;;0.82;;
75021;SDS011;63583;49.976;20.182;2023-03-26T01:12:28;1.20;;;0.70;;
75021;SDS011;63583;49.976;20.182;2023-03-26T01:14:59;2.42;;;1.02;;
75021;SDS011;63583;49.976;20.182;2023-03-26T01:17:26;1.00;;;0.65;;
75021;SDS011;63583;49.976;20.182;2023-03-26T01:22:32;0.75;;;0.60;;
75021;SDS011;63583;49.976;20.182;2023-03-26T01:25:01;1.33;;;0.80;;
75021;SDS011;63583;49.976;20.182;2023-03-26T01:30:22;1.63;;;0.90;;
75021;SDS011;63583;49.976;20.182;2023-03-26T01:33:04;2.92;;;1.05;;
75021;SDS011;63583;49.976;20.182;2023-03-26T01:35:44;3.33;;;1.10;;
75021;SDS011;63583;49.976;20.182;2023-03-26T01:47:10;1.52;;;0.77;;
75021;SDS011;63583;49.976;20.182;2023-03-26T01:49:37;1.95;;;0.95;;
75021;SDS011;63583;49.976;20.182;2023-03-26T01:52:05;1.85;;;0.85;;
75021;SDS011;63583;49.976;20.182;2023-03-26T01:54:39;1.08;;;0.70;;
75021;SDS011;63583;49.976;20.182;2023-03-26T01:57:10;1.48;;;0.77;;
75021;SDS011;63583;49.976;20.182;2023-03-26T02:02:44;2.35;;;1.05;;
75021;SDS011;63583;49.976;20.182;2023-03-26T02:05:43;1.23;;;0.70;;
75021;SDS011;63583;49.976;20.182;2023-03-26T02:08:37;1.97;;;1.07;;
75021;SDS011;63583;49.976;20.182;2023-03-26T02:11:08;2.00;;;0.93;;
75021;SDS011;63583;49.976;20.182;2023-03-26T02:13:41;2.13;;;0.70;;
75021;SDS011;63583;49.976;20.182;2023-03-26T02:16:10;1.10;;;0.70;;
75021;SDS011;63583;49.976;20.182;2023-03-26T02:18:42;0.73;;;0.50;;
75021;SDS011;63583;49.976;20.182;2023-03-26T02:21:09;1.42;;;0.70;;
75021;SDS011;63583;49.976;20.182;2023-03-26T02:23:41;2.25;;;0.70;;
75021;SDS011;63583;49.976;20.182;2023-03-26T02:26:10;0.90;;;0.52;;
75021;SDS011;63583;49.976;20.182;2023-03-26T02:28:38;1.08;;;0.60;;
75021;SDS011;63583;49.976;20.182;2023-03-26T02:31:04;1.30;;;0.60;;
75021;SDS011;63583;49.976;20.182;2023-03-26T02:33:30;0.88;;;0.50;;
75021;SDS011;63583;49.976;20.182;2023-03-26T02:35:57;1.10;;;0.70;;
75021;SDS011;63583;49.976;20.182;2023-03-26T02:38:27;0.90;;;0.50;;
75021;SDS011;63583;49.976;20.182;2023-03-26T02:40:53;0.82;;;0.68;;
75021;SDS011;63583;49.976;20.182;2023-03-26T02:43:20;1.63;;;0.52;;
75021;SDS011;63583;49.976;20.182;2023-03-26T02:45:46;0.40;;;0.35;;
75021;SDS011;63583;49.976;20.182;2023-03-26T02:48:12;1.73;;;0.80;;
75021;SDS011;63583;49.976;20.182;2023-03-26T02:50:39;1.08;;;0.70;;
75021;SDS011;63583;49.976;20.182;2023-03-26T02:53:05;1.23;;;0.70;;
75021;SDS011;63583;49.976;20.182;2023-03-26T02:55:31;1.85;;;0.70;;
75021;SDS011;63583;49.976;20.182;2023-03-26T02:57:57;1.92;;;0.82;;
75021;SDS011;63583;49.976;20.182;2023-03-26T03:00:23;1.65;;;0.88;;
75021;SDS011;63583;49.976;20.182;2023-03-26T03:02:50;2.72;;;1.00;;
75021;SDS011;63583;49.976;20.182;2023-03-26T03:05:17;1.60;;;0.70;;
75021;SDS011;63583;49.976;20.182;2023-03-26T03:07:46;0.93;;;0.68;;
75021;SDS011;63583;49.976;20.182;2023-03-26T03:10:12;1.40;;;0.85;;
75021;SDS011;63583;49.976;20.182;2023-03-26T03:12:39;2.00;;;1.00;;
75021;SDS011;63583;49.976;20.182;2023-03-26T03:15:06;1.98;;;0.77;;
75021;SDS011;63583;49.976;20.182;2023-03-26T03:17:32;2.50;;;0.88;;
75021;SDS011;63583;49.976;20.182;2023-03-26T03:19:58;1.55;;;0.80;;
75021;SDS011;63583;49.976;20.182;2023-03-26T03:22:24;1.75;;;0.93;;
75021;SDS011;63583;49.976;20.182;2023-03-26T03:24:49;2.65;;;0.90;;
75021;SDS011;63583;49.976;20.182;2023-03-26T03:27:16;1.77;;;0.82;;
75021;SDS011;63583;49.976;20.182;2023-03-26T03:29:46;2.58;;;0.80;;
75021;SDS011;63583;49.976;20.182;2023-03-26T03:32:12;1.73;;;0.98;;
75021;SDS011;63583;49.976;20.182;2023-03-26T03:34:37;1.63;;;0.73;;
75021;SDS011;63583;49.976;20.182;2023-03-26T03:37:03;2.75;;;1.00;;
75021;SDS011;63583;49.976;20.182;2023-03-26T03:39:29;1.05;;;0.73;;
75021;SDS011;63583;49.976;20.182;2023-03-26T03:41:55;1.45;;;0.77;;
75021;SDS011;63583;49.976;20.182;2023-03-26T03:44:20;2.05;;;0.80;;
75021;SDS011;63583;49.976;20.182;2023-03-26T03:46:46;1.00;;;0.70;;
75021;SDS011;63583;49.976;20.182;2023-03-26T03:49:13;1.63;;;0.82;;
75021;SDS011;63583;49.976;20.182;2023-03-26T03:51:39;1.48;;;0.90;;
75021;SDS011;63583;49.976;20.182;2023-03-26T03:54:05;3.35;;;1.00;;
75021;SDS011;63583;49.976;20.182;2023-03-26T03:56:31;1.55;;;0.90;;
75021;SDS011;63583;49.976;20.182;2023-03-26T03:58:56;2.10;;;1.10;;
75021;SDS011;63583;49.976;20.182;2023-03-26T04:01:22;2.50;;;1.08;;
75021;SDS011;63583;49.976;20.182;2023-03-26T04:03:48;2.67;;;0.88;;
75021;SDS011;63583;49.976;20.182;2023-03-26T04:06:14;1.83;;;0.90;;
75021;SDS011;63583;49.976;20.182;2023-03-26T04:08:43;3.97;;;1.25;;
75021;SDS011;63583;49.976;20.182;2023-03-26T04:11:11;3.00;;;1.08;;
75021;SDS011;63583;49.976;20.182;2023-03-26T04:13:37;1.88;;;1.00;;
75021;SDS011;63583;49.976;20.182;2023-03-26T04:16:03;1.60;;;0.90;;
75021;SDS011;63583;49.976;20.182;2023-03-26T04:18:29;1.95;;;1.05;;
75021;SDS011;63583;49.976;20.182;2023-03-26T04:20:56;2.08;;;0.82;;
75021;SDS011;63583;49.976;20.182;2023-03-26T04:23:26;1.33;;;0.82;;
75021;SDS011;63583;49.976;20.182;2023-03-26T04:25:53;0.85;;;0.52;;
75021;SDS011;63583;49.976;20.182;2023-03-26T04:28:27;2.30;;;0.88;;
75021;SDS011;63583;49.976;20.182;2023-03-26T04:33:36;3.22;;;1.00;;
75021;SDS011;63583;49.976;20.182;2023-03-26T04:36:03;1.42;;;0.77;;
75021;SDS011;63583;49.976;20.182;2023-03-26T04:38:32;1.33;;;0.68;;
75021;SDS011;63583;49.976;20.182;2023-03-26T04:41:04;3.15;;;1.10;;
75021;SDS011;63583;49.976;20.182;2023-03-26T04:43:32;1.88;;;0.90;;
75021;SDS011;63583;49.976;20.182;2023-03-26T04:45:59;1.42;;;0.90;;
75021;SDS011;63583;49.976;20.182;2023-03-26T04:48:28;2.03;;;0.77;;
75021;SDS011;63583;49.976;20.182;2023-03-26T04:50:55;2.10;;;0.82;;
75021;SDS011;63583;49.976;20.182;2023-03-26T04:53:21;1.33;;;0.80;;
75021;SDS011;63583;49.976;20.182;2023-03-26T04:59:00;2.05;;;0.85;;
75021;SDS011;63583;49.976;20.182;2023-03-26T05:01:26;1.67;;;0.93;;
75021;SDS011;63583;49.976;20.182;2023-03-26T05:03:53;4.13;;;0.95;;
75021;SDS011;63583;49.976;20.182;2023-03-26T05:06:19;2.10;;;1.00;;
75021;SDS011;63583;49.976;20.182;2023-03-26T05:08:46;3.45;;;1.23;;
75021;SDS011;63583;49.976;20.182;2023-03-26T05:11:12;1.52;;;0.90;;
75021;SDS011;63583;49.976;20.182;2023-03-26T05:13:37;3.75;;;1.00;;
75021;SDS011;63583;49.976;20.182;2023-03-26T05:16:03;2.47;;;1.00;;
75021;SDS011;63583;49.976;20.182;2023-03-26T05:18:29;2.22;;;1.10;;
75021;SDS011;63583;49.976;20.182;2023-03-26T05:20:56;2.38;;;1.00;;
75021;SDS011;63583;49.976;20.182;2023-03-26T05:23:22;1.50;;;0.85;;
75021;SDS011;63583;49.976;20.182;2023-03-26T05:25:47;1.13;;;0.85;;
75021;SDS011;63583;49.976;20.182;2023-03-26T05:28:13;1.25;;;0.80;;
75021;SDS011;63583;49.976;20.182;2023-03-26T05:30:39;2.22;;;0.90;;
75021;SDS011;63583;49.976;20.182;2023-03-26T05:33:07;1.30;;;0.80;;
75021;SDS011;63583;49.976;20.182;2023-03-26T05:35:33;2.00;;;1.08;;
75021;SDS011;63583;49.976;20.182;2023-03-26T05:37:58;1.35;;;0.90;;
75021;SDS011;63583;49.976;20.182;2023-03-26T05:40:24;2.22;;;0.90;;
75021;SDS011;63583;49.976;20.182;2023-03-26T05:42:50;1.77;;;0.85;;
75021;SDS011;63583;49.976;20.182;2023-03-26T05:45:16;2.67;;;0.80;;
75021;SDS011;63583;49.976;20.182;2023-03-26T05:47:41;4.30;;;1.23;;
75021;SDS011;63583;49.976;20.182;2023-03-26T05:50:07;1.30;;;0.70;;
75021;SDS011;63583;49.976;20.182;2023-03-26T05:52:33;2.92;;;1.30;;
75021;SDS011;63583;49.976;20.182;2023-03-26T05:54:59;3.45;;;1.17;;
75021;SDS011;63583;49.976;20.182;2023-03-26T05:57:27;1.92;;;0.82;;
75021;SDS011;63583;49.976;20.182;2023-03-26T05:59:54;2.33;;;1.05;;
75021;SDS011;63583;49.976;20.182;2023-03-26T06:02:20;2.08;;;0.90;;
75021;SDS011;63583;49.976;20.182;2023-03-26T06:04:47;2.40;;;1.13;;
75021;SDS011;63583;49.976;20.182;2023-03-26T06:07:13;1.17;;;0.88;;
75021;SDS011;63583;49.976;20.182;2023-03-26T06:09:39;2.05;;;0.85;;
75021;SDS011;63583;49.976;20.182;2023-03-26T06:12:05;1.70;;;0.80;;
75021;SDS011;63583;49.976;20.182;2023-03-26T06:14:32;2.75;;;0.77;;
75021;SDS011;63583;49.976;20.182;2023-03-26T06:16:57;2.78;;;0.82;;
75021;SDS011;63583;49.976;20.182;2023-03-26T06:19:23;2.90;;;1.00;;
75021;SDS011;63583;49.976;20.182;2023-03-26T06:21:49;1.77;;;0.80;;
75021;SDS011;63583;49.976;20.182;2023-03-26T06:24:15;3.40;;;1.15;;
75021;SDS011;63583;49.976;20.182;2023-03-26T06:26:41;1.80;;;1.00;;
75021;SDS011;63583;49.976;20.182;2023-03-26T06:29:07;1.80;;;0.70;;
75021;SDS011;63583;49.976;20.182;2023-03-26T06:31:33;1.27;;;0.70;;
75021;SDS011;63583;49.976;20.182;2023-03-26T06:33:59;3.20;;;1.10;;
75021;SDS011;63583;49.976;20.182;2023-03-26T06:36:24;1.27;;;0.70;;
75021;SDS011;63583;49.976;20.182;2023-03-26T06:38:50;3.35;;;0.90;;
75021;SDS011;63583;49.976;20.182;2023-03-26T06:41:16;3.08;;;0.88;;
75021;SDS011;63583;49.976;20.182;2023-03-26T06:43:42;1.58;;;0.70;;
75021;SDS011;63583;49.976;20.182;2023-03-26T06:46:07;1.10;;;0.77;;
75021;SDS011;63583;49.976;20.182;2023-03-26T06:48:33;1.60;;;0.80;;
75021;SDS011;63583;49.976;20.182;2023-03-26T06:50:59;4.05;;;1.33;;
75021;SDS011;63583;49.976;20.182;2023-03-26T06:53:25;2.17;;;1.20;;
75021;SDS011;63583;49.976;20.182;2023-03-26T06:55:51;1.90;;;0.93;;
75021;SDS011;63583;49.976;20.182;2023-03-26T06:58:19;1.98;;;1.00;;
75021;SDS011;63583;49.976;20.182;2023-03-26T07:00:45;1.83;;;0.95;;
75021;SDS011;63583;49.976;20.182;2023-03-26T07:03:11;2.70;;;1.10;;
75021;SDS011;63583;49.976;20.182;2023-03-26T07:05:37;1.45;;;0.90;;
75021;SDS011;63583;49.976;20.182;2023-03-26T07:08:05;3.15;;;1.08;;
75021;SDS011;63583;49.976;20.182;2023-03-26T07:10:31;3.45;;;0.90;;
75021;SDS011;63583;49.976;20.182;2023-03-26T07:12:57;0.98;;;0.57;;
75021;SDS011;63583;49.976;20.182;2023-03-26T07:15:22;0.95;;;0.70;;
75021;SDS011;63583;49.976;20.182;2023-03-26T07:17:48;1.40;;;0.90;;
75021;SDS011;63583;49.976;20.182;2023-03-26T07:20:14;1.85;;;0.82;;
75021;SDS011;63583;49.976;20.182;2023-03-26T07:22:40;3.70;;;1.10;;
75021;SDS011;63583;49.976;20.182;2023-03-26T07:25:06;2.15;;;1.00;;
75021;SDS011;63583;49.976;20.182;2023-03-26T07:27:49;1.52;;;0.85;;
75021;SDS011;63583;49.976;20.182;2023-03-26T07:30:24;0.88;;;0.70;;
75021;SDS011;63583;49.976;20.182;2023-03-26T07:32:52;2.88;;;0.90;;
75021;SDS011;63583;49.976;20.182;2023-03-26T07:35:36;2.33;;;1.10;;
75021;SDS011;63583;49.976;20.182;2023-03-26T07:38:12;1.17;;;0.65;;
75021;SDS011;63583;49.976;20.182;2023-03-26T07:41:15;2.60;;;0.70;;
75021;SDS011;63583;49.976;20.182;2023-03-26T07:44:03;1.38;;;0.80;;
75021;SDS011;63583;49.976;20.182;2023-03-26T07:46:37;1.33;;;0.88;;
75021;SDS011;63583;49.976;20.182;2023-03-26T07:49:03;1.33;;;0.75;;
75021;SDS011;63583;49.976;20.182;2023-03-26T07:51:30;1.85;;;0.90;;
75021;SDS011;63583;49.976;20.182;2023-03-26T07:53:57;2.53;;;1.23;;
75021;SDS011;63583;49.976;20.182;2023-03-26T07:58:58;2.00;;;0.93;;
75021;SDS011;63583;49.976;20.182;2023-03-26T08:15:31;1.95;;;0.90;;
75021;SDS011;63583;49.976;20.182;2023-03-26T08:18:15;1.23;;;0.75;;
75021;SDS011;63583;49.976;20.182;2023-03-26T08:20:50;2.35;;;1.30;;
75021;SDS011;63583;49.976;20.182;2023-03-26T08:24:12;1.35;;;0.75;;
75021;SDS011;63583;49.976;20.182;2023-03-26T08:29:22;1.58;;;0.90;;
75021;SDS011;63583;49.976;20.182;2023-03-26T08:31:52;1.40;;;0.80;;
75021;SDS011;63583;49.976;20.182;2023-03-26T08:34:19;4.57;;;1.20;;
75021;SDS011;63583;49.976;20.182;2023-03-26T08:36:45;1.23;;;0.77;;
75021;SDS011;63583;49.976;20.182;2023-03-26T08:39:11;1.55;;;0.60;;
75021;SDS011;63583;49.976;20.182;2023-03-26T08:41:43;2.15;;;1.00;;
75021;SDS011;63583;49.976;20.182;2023-03-26T08:53:02;2.60;;;0.80;;
75021;SDS011;63583;49.976;20.182;2023-03-26T09:23:07;1.90;;;0.90;;
75021;SDS011;63583;49.976;20.182;2023-03-26T09:28:34;1.42;;;0.80;;
75021;SDS011;63583;49.976;20.182;2023-03-26T09:31:26;1.08;;;0.60;;
75021;SDS011;63583;49.976;20.182;2023-03-26T09:45:32;1.40;;;0.68;;
75021;SDS011;63583;49.976;20.182;2023-03-26T10:02:08;1.35;;;0.80;;
75021;SDS011;63583;49.976;20.182;2023-03-26T10:05:12;0.63;;;0.57;;
75021;SDS011;63583;49.976;20.182;2023-03-26T10:10:51;1.80;;;0.90;;
75021;SDS011;63583;49.976;20.182;2023-03-26T10:16:35;1.77;;;0.90;;
75021;SDS011;63583;49.976;20.182;2023-03-26T10:22:11;2.42;;;0.80;;
75021;SDS011;63583;49.976;20.182;2023-03-26T10:33:53;3.00;;;0.70;;
75021;SDS011;63583;49.976;20.182;2023-03-26T10:36:31;3.20;;;0.75;;
75021;SDS011;63583;49.976;20.182;2023-03-26T10:52:46;2.72;;;0.90;;
75021;SDS011;63583;49.976;20.182;2023-03-26T10:55:17;0.98;;;0.70;;
75021;SDS011;63583;49.976;20.182;2023-03-26T10:57:48;2.03;;;0.85;;
75021;SDS011;63583;49.976;20.182;2023-03-26T11:00:38;2.58;;;0.70;;
75021;SDS011;63583;49.976;20.182;2023-03-26T11:14:23;1.65;;;0.80;;
75021;SDS011;63583;49.976;20.182;2023-03-26T11:19:51;1.40;;;0.70;;
75021;SDS011;63583;49.976;20.182;2023-03-26T11:33:43;2.28;;;0.90;;
75021;SDS011;63583;49.976;20.182;2023-03-26T11:36:12;0.98;;;0.68;;
75021;SDS011;63583;49.976;20.182;2023-03-26T11:38:51;2.47;;;0.90;;
75021;SDS011;63583;49.976;20.182;2023-03-26T11:41:20;1.85;;;0.80;;
75021;SDS011;63583;49.976;20.182;2023-03-26T11:46:17;2.10;;;1.33;;
75021;SDS011;63583;49.976;20.182;2023-03-26T11:48:48;2.67;;;1.27;;
75021;SDS011;63583;49.976;20.182;2023-03-26T11:51:19;5.03;;;2.65;;
75021;SDS011;63583;49.976;20.182;2023-03-26T11:53:49;3.42;;;1.23;;
75021;SDS011;63583;49.976;20.182;2023-03-26T11:59:17;2.15;;;1.00;;
75021;SDS011;63583;49.976;20.182;2023-03-26T12:04:37;2.88;;;0.90;;
75021;SDS011;63583;49.976;20.182;2023-03-26T12:09:58;3.13;;;1.40;;
75021;SDS011;63583;49.976;20.182;2023-03-26T12:12:30;1.25;;;0.90;;
75021;SDS011;63583;49.976;20.182;2023-03-26T12:15:00;1.90;;;0.82;;
75021;SDS011;63583;49.976;20.182;2023-03-26T12:17:31;2.55;;;1.42;;
75021;SDS011;63583;49.976;20.182;2023-03-26T12:19:59;3.72;;;1.92;;
75021;SDS011;63583;49.976;20.182;2023-03-26T12:22:31;2.08;;;1.15;;
75021;SDS011;63583;49.976;20.182;2023-03-26T12:27:27;3.65;;;1.77;;
75021;SDS011;63583;49.976;20.182;2023-03-26T12:29:58;1.80;;;0.95;;
75021;SDS011;63583;49.976;20.182;2023-03-26T12:32:37;7.93;;;3.80;;
75021;SDS011;63583;49.976;20.182;2023-03-26T12:35:06;7.53;;;1.92;;
75021;SDS011;63583;49.976;20.182;2023-03-26T12:37:43;3.05;;;1.42;;
75021;SDS011;63583;49.976;20.182;2023-03-26T12:42:55;2.60;;;1.52;;
75021;SDS011;63583;49.976;20.182;2023-03-26T12:45:27;15.10;;;6.53;;
75021;SDS011;63583;49.976;20.182;2023-03-26T12:48:01;6.10;;;1.77;;
75021;SDS011;63583;49.976;20.182;2023-03-26T12:53:36;4.45;;;2.40;;
75021;SDS011;63583;49.976;20.182;2023-03-26T12:56:18;2.70;;;1.30;;
75021;SDS011;63583;49.976;20.182;2023-03-26T13:01:54;5.05;;;2.38;;
75021;SDS011;63583;49.976;20.182;2023-03-26T13:15:59;3.25;;;1.92;;
75021;SDS011;63583;49.976;20.182;2023-03-26T13:27:17;2.72;;;1.20;;
75021;SDS011;63583;49.976;20.182;2023-03-26T13:30:02;4.93;;;1.25;;
75021;SDS011;63583;49.976;20.182;2023-03-26T13:38:20;4.28;;;2.30;;
75021;SDS011;63583;49.976;20.182;2023-03-26T13:43:43;2.92;;;1.40;;
75021;SDS011;63583;49.976;20.182;2023-03-26T13:46:23;2.47;;;1.35;;
75021;SDS011;63583;49.976;20.182;2023-03-26T13:49:45;4.40;;;2.95;;
75021;SDS011;63583;49.976;20.182;2023-03-26T13:52:18;4.03;;;1.98;;
75021;SDS011;63583;49.976;20.182;2023-03-26T14:00:18;2.10;;;1.30;;
75021;SDS011;63583;49.976;20.182;2023-03-26T14:02:57;3.88;;;1.85;;
75021;SDS011;63583;49.976;20.182;2023-03-26T14:05:46;6.95;;;2.42;;
75021;SDS011;63583;49.976;20.182;2023-03-26T14:08:18;4.80;;;1.88;;
75021;SDS011;63583;49.976;20.182;2023-03-26T14:10:57;2.05;;;1.10;;
75021;SDS011;63583;49.976;20.182;2023-03-26T14:14:17;6.03;;;2.35;;
75021;SDS011;63583;49.976;20.182;2023-03-26T14:16:27;2.20;;;1.20;;
75021;SDS011;63583;49.976;20.182;2023-03-26T14:25:05;4.50;;;1.80;;
75021;SDS011;63583;49.976;20.182;2023-03-26T14:27:37;2.72;;;1.45;;
75021;SDS011;63583;49.976;20.182;2023-03-26T14:41:12;8.40;;;1.30;;
75021;SDS011;63583;49.976;20.182;2023-03-26T14:43:51;1.50;;;0.80;;
75021;SDS011;63583;49.976;20.182;2023-03-26T14:55:05;2.08;;;1.42;;
75021;SDS011;63583;49.976;20.182;2023-03-26T14:57:51;4.35;;;2.03;;
75021;SDS011;63583;49.976;20.182;2023-03-26T15:12:33;4.88;;;2.67;;
75021;SDS011;63583;49.976;20.182;2023-03-26T15:15:42;6.20;;;3.10;;
75021;SDS011;63583;49.976;20.182;2023-03-26T15:21:10;3.92;;;2.03;;
75021;SDS011;63583;49.976;20.182;2023-03-26T15:35:26;11.32;;;7.20;;
75021;SDS011;63583;49.976;20.182;2023-03-26T15:41:16;4.35;;;2.22;;
75021;SDS011;63583;49.976;20.182;2023-03-26T15:49:13;6.07;;;2.30;;
75021;SDS011;63583;49.976;20.182;2023-03-26T15:52:01;4.13;;;1.42;;
75021;SDS011;63583;49.976;20.182;2023-03-26T15:57:39;6.85;;;2.65;;
75021;SDS011;63583;49.976;20.182;2023-03-26T16:03:08;3.63;;;1.63;;
75021;SDS011;63583;49.976;20.182;2023-03-26T16:11:11;6.45;;;2.53;;
75021;SDS011;63583;49.976;20.182;2023-03-26T16:13:53;6.75;;;2.30;;
75021;SDS011;63583;49.976;20.182;2023-03-26T16:16:57;5.30;;;2.25;;
75021;SDS011;63583;49.976;20.182;2023-03-26T16:22:06;7.20;;;3.08;;
75021;SDS011;63583;49.976;20.182;2023-03-26T16:24:37;7.13;;;2.45;;
75021;SDS011;63583;49.976;20.182;2023-03-26T16:27:06;15.25;;;5.25;;
75021;SDS011;63583;49.976;20.182;2023-03-26T16:32:27;7.60;;;3.55;;
75021;SDS011;63583;49.976;20.182;2023-03-26T16:34:59;5.53;;;2.38;;
75021;SDS011;63583;49.976;20.182;2023-03-26T16:48:20;5.68;;;2.65;;
75021;SDS011;63583;49.976;20.182;2023-03-26T16:53:44;8.35;;;3.38;;
75021;SDS011;63583;49.976;20.182;2023-03-26T17:01:27;9.65;;;3.75;;
75021;SDS011;63583;49.976;20.182;2023-03-26T17:04:17;8.00;;;3.95;;
75021;SDS011;63583;49.976;20.182;2023-03-26T17:09:38;5.88;;;2.60;;
75021;SDS011;63583;49.976;20.182;2023-03-26T17:12:16;5.65;;;2.22;;
75021;SDS011;63583;49.976;20.182;2023-03-26T17:17:34;12.38;;;4.80;;
75021;SDS011;63583;49.976;20.182;2023-03-26T17:20:31;14.95;;;5.07;;
75021;SDS011;63583;49.976;20.182;2023-03-26T17:31:15;3.58;;;1.80;;
75021;SDS011;63583;49.976;20.182;2023-03-26T17:33:47;7.53;;;2.22;;
75021;SDS011;63583;49.976;20.182;2023-03-26T17:36:19;10.07;;;2.95;;
75021;SDS011;63583;49.976;20.182;2023-03-26T17:38:56;6.22;;;2.85;;
75021;SDS011;63583;49.976;20.182;2023-03-26T17:47:18;8.38;;;3.58;;
75021;SDS011;63583;49.976;20.182;2023-03-26T17:49:48;7.68;;;3.80;;
75021;SDS011;63583;49.976;20.182;2023-03-26T17:52:22;18.73;;;5.90;;
75021;SDS011;63583;49.976;20.182;2023-03-26T17:55:14;10.65;;;4.32;;
75021;SDS011;63583;49.976;20.182;2023-03-26T17:57:44;10.88;;;4.85;;
75021;SDS011;63583;49.976;20.182;2023-03-26T18:00:25;16.75;;;5.05;;
75021;SDS011;63583;49.976;20.182;2023-03-26T18:02:56;17.88;;;6.20;;
75021;SDS011;63583;49.976;20.182;2023-03-26T18:05:27;24.95;;;8.65;;
75021;SDS011;63583;49.976;20.182;2023-03-26T18:13:45;9.52;;;4.22;;
75021;SDS011;63583;49.976;20.182;2023-03-26T18:16:36;6.07;;;2.80;;
75021;SDS011;63583;49.976;20.182;2023-03-26T18:19:10;6.15;;;2.28;;
75021;SDS011;63583;49.976;20.182;2023-03-26T18:21:56;8.43;;;2.80;;
75021;SDS011;63583;49.976;20.182;2023-03-26T18:24:29;6.80;;;3.13;;
75021;SDS011;63583;49.976;20.182;2023-03-26T18:27:08;5.18;;;2.45;;
75021;SDS011;63583;49.976;20.182;2023-03-26T18:29:37;8.98;;;4.57;;
75021;SDS011;63583;49.976;20.182;2023-03-26T18:34:35;17.45;;;10.60;;
75021;SDS011;63583;49.976;20.182;2023-03-26T18:37:13;16.48;;;9.10;;
75021;SDS011;63583;49.976;20.182;2023-03-26T18:40:42;18.85;;;8.75;;
75021;SDS011;63583;49.976;20.182;2023-03-26T18:42:44;16.50;;;7.18;;
75021;SDS011;63583;49.976;20.182;2023-03-26T18:47:57;8.02;;;3.60;;
75021;SDS011;63583;49.976;20.182;2023-03-26T18:50:31;7.05;;;3.20;;
75021;SDS011;63583;49.976;20.182;2023-03-26T18:53:03;7.03;;;3.47;;
75021;SDS011;63583;49.976;20.182;2023-03-26T18:55:31;8.93;;;3.42;;
75021;SDS011;63583;49.976;20.182;2023-03-26T18:58:19;8.60;;;3.65;;
75021;SDS011;63583;49.976;20.182;2023-03-26T19:00:49;9.60;;;3.58;;
75021;SDS011;63583;49.976;20.182;2023-03-26T19:03:19;8.40;;;2.63;;
75021;SDS011;63583;49.976;20.182;2023-03-26T19:05:48;9.02;;;3.95;;
75021;SDS011;63583;49.976;20.182;2023-03-26T19:08:16;8.13;;;3.55;;
75021;SDS011;63583;49.976;20.182;2023-03-26T19:10:43;12.63;;;4.40;;
75021;SDS011;63583;49.976;20.182;2023-03-26T19:13:13;6.80;;;2.97;;
75021;SDS011;63583;49.976;20.182;2023-03-26T19:15:40;8.70;;;4.03;;
75021;SDS011;63583;49.976;20.182;2023-03-26T19:18:07;5.95;;;2.78;;
75021;SDS011;63583;49.976;20.182;2023-03-26T19:20:42;9.68;;;3.60;;
75021;SDS011;63583;49.976;20.182;2023-03-26T19:23:19;8.13;;;3.67;;
75021;SDS011;63583;49.976;20.182;2023-03-26T19:25:50;4.68;;;2.70;;
75021;SDS011;63583;49.976;20.182;2023-03-26T19:28:38;6.78;;;2.97;;
75021;SDS011;63583;49.976;20.182;2023-03-26T19:33:57;9.40;;;3.75;;
75021;SDS011;63583;49.976;20.182;2023-03-26T19:36:26;7.93;;;3.22;;
75021;SDS011;63583;49.976;20.182;2023-03-26T19:39:02;9.65;;;3.55;;
75021;SDS011;63583;49.976;20.182;2023-03-26T19:44:10;8.90;;;3.25;;
75021;SDS011;63583;49.976;20.182;2023-03-26T19:46:50;7.57;;;3.38;;
75021;SDS011;63583;49.976;20.182;2023-03-26T19:49:29;7.32;;;3.83;;
75021;SDS011;63583;49.976;20.182;2023-03-26T19:52:31;9.70;;;3.20;;
75021;SDS011;63583;49.976;20.182;2023-03-26T19:55:03;7.38;;;3.90;;
75021;SDS011;63583;49.976;20.182;2023-03-26T19:57:42;8.30;;;3.28;;
75021;SDS011;63583;49.976;20.182;2023-03-26T20:00:09;8.07;;;3.35;;
75021;SDS011;63583;49.976;20.182;2023-03-26T20:02:38;6.82;;;3.65;;
75021;SDS011;63583;49.976;20.182;2023-03-26T20:05:05;9.48;;;3.67;;
75021;SDS011;63583;49.976;20.182;2023-03-26T20:07:43;6.78;;;2.75;;
75021;SDS011;63583;49.976;20.182;2023-03-26T20:10:10;4.68;;;2.10;;
75021;SDS011;63583;49.976;20.182;2023-03-26T20:12:36;8.93;;;3.85;;
75021;SDS011;63583;49.976;20.182;2023-03-26T20:15:09;7.38;;;3.42;;
75021;SDS011;63583;49.976;20.182;2023-03-26T20:20:17;4.38;;;2.33;;
75021;SDS011;63583;49.976;20.182;2023-03-26T20:22:43;7.47;;;2.08;;
75021;SDS011;63583;49.976;20.182;2023-03-26T20:25:21;6.93;;;2.50;;
75021;SDS011;63583;49.976;20.182;2023-03-26T20:27:50;5.00;;;2.30;;
75021;SDS011;63583;49.976;20.182;2023-03-26T20:30:17;4.95;;;2.40;;
75021;SDS011;63583;49.976;20.182;2023-03-26T20:32:43;4.80;;;2.13;;
75021;SDS011;63583;49.976;20.182;2023-03-26T20:35:30;8.27;;;3.45;;
75021;SDS011;63583;49.976;20.182;2023-03-26T20:37:55;7.13;;;3.08;;
75021;SDS011;63583;49.976;20.182;2023-03-26T20:40:21;7.68;;;3.55;;
75021;SDS011;63583;49.976;20.182;2023-03-26T20:42:47;6.80;;;2.97;;
75021;SDS011;63583;49.976;20.182;2023-03-26T20:45:16;6.82;;;2.88;;
75021;SDS011;63583;49.976;20.182;2023-03-26T20:47:44;5.97;;;2.63;;
75021;SDS011;63583;49.976;20.182;2023-03-26T20:50:13;10.05;;;3.42;;
75021;SDS011;63583;49.976;20.182;2023-03-26T20:52:40;5.97;;;2.42;;
75021;SDS011;63583;49.976;20.182;2023-03-26T20:55:17;5.40;;;2.45;;